Time,TemperatureF,DewpointF,PressureIn,WindDirection,WindDirectionDegrees,WindSpeedMPH,WindSpeedGustMPH,Humidity,HourlyPrecipIn,Conditions,Clouds,dailyrainin,SoftwareType,DateUTC
2013-01-31 00:08:00,50.7,49.0,30.19,South,181,0.0,0.0,94,0.00,,,0.00,weatherlink.com 1.10,2013-01-30 23:08:00,
2013-01-31 00:23:00,51.2,50.0,30.19,ENE,71,0.0,1.0,94,0.00,,,0.00,weatherlink.com 1.10,2013-01-30 23:23:00,
2013-01-31 00:38:00,51.7,50.0,30.19,ENE,63,0.0,1.0,93,0.00,,,0.00,weatherlink.com 1.10,2013-01-30 23:38:00,
2013-01-31 00:53:00,51.2,49.0,30.18,ENE,64,0.0,0.0,92,0.00,,,0.00,weatherlink.com 1.10,2013-01-30 23:53:00,
2013-01-31 01:08:00,51.0,49.0,30.18,ENE,64,0.0,0.0,92,0.00,,,0.00,weatherlink.com 1.10,2013-01-31 00:08:00,
2013-01-31 01:24:00,51.0,49.0,30.18,ENE,58,0.0,0.0,91,0.00,,,0.00,weatherlink.com 1.10,2013-01-31 00:24:00,
2013-01-31 01:38:00,50.9,48.0,30.18,ENE,59,0.0,0.0,91,0.00,,,0.00,weatherlink.com 1.10,2013-01-31 00:38:00,
2013-01-31 01:53:00,50.7,48.0,30.17,ENE,58,0.0,0.0,90,0.00,,,0.00,weatherlink.com 1.10,2013-01-31 00:53:00,
2013-01-31 02:08:00,50.6,48.0,30.17,ENE,58,0.0,0.0,91,0.00,,,0.00,weatherlink.com 1.10,2013-01-31 01:08:00,
2013-01-31 02:23:00,50.3,48.0,30.17,ENE,57,0.0,0.0,92,0.00,,,0.00,weatherlink.com 1.10,2013-01-31 01:23:00,
2013-01-31 02:38:00,50.1,48.0,30.16,SSE,157,0.0,0.0,92,0.00,,,0.00,weatherlink.com 1.10,2013-01-31 01:38:00,
2013-01-31 02:53:00,49.7,48.0,30.16,SSE,155,0.0,0.0,92,0.00,,,0.00,weatherlink.com 1.10,2013-01-31 01:53:00,
2013-01-31 03:08:00,49.4,48.0,30.16,SSE,155,0.0,0.0,93,0.00,,,0.00,weatherlink.com 1.10,2013-01-31 02:08:00,
2013-01-31 03:23:00,49.4,47.0,30.16,ENE,63,0.0,0.0,92,0.00,,,0.00,weatherlink.com 1.10,2013-01-31 02:23:00,
2013-01-31 03:38:00,49.1,47.0,30.15,ENE,63,0.0,0.0,91,0.00,,,0.00,weatherlink.com 1.10,2013-01-31 02:38:00,
2013-01-31 03:53:00,48.7,46.0,30.15,ENE,63,0.0,0.0,91,0.00,,,0.00,weatherlink.com 1.10,2013-01-31 02:53:00,
2013-01-31 04:08:00,48.1,46.0,30.15,ENE,63,0.0,0.0,92,0.00,,,0.00,weatherlink.com 1.10,2013-01-31 03:08:00,
2013-01-31 04:23:00,47.8,46.0,30.16,ENE,63,0.0,0.0,93,0.00,,,0.00,weatherlink.com 1.10,2013-01-31 03:23:00,
2013-01-31 04:38:00,47.6,46.0,30.16,ENE,63,0.0,0.0,93,0.00,,,0.00,weatherlink.com 1.10,2013-01-31 03:38:00,
2013-01-31 04:53:00,47.7,46.0,30.16,ENE,70,0.0,1.0,92,0.00,,,0.00,weatherlink.com 1.10,2013-01-31 03:53:00,
2013-01-31 05:08:00,47.8,45.0,30.16,ENE,68,0.0,1.0,91,0.00,,,0.00,weatherlink.com 1.10,2013-01-31 04:08:00,
2013-01-31 05:23:00,47.5,45.0,30.17,ENE,67,0.0,1.0,91,0.00,,,0.00,weatherlink.com 1.10,2013-01-31 04:23:00,
2013-01-31 05:38:00,47.2,45.0,30.17,ENE,57,0.0,0.0,91,0.00,,,0.00,weatherlink.com 1.10,2013-01-31 04:38:00,
2013-01-31 05:53:00,47.0,45.0,30.17,ENE,60,0.0,0.0,91,0.00,,,0.00,weatherlink.com 1.10,2013-01-31 04:53:00,
2013-01-31 06:08:00,46.9,45.0,30.18,ENE,58,0.0,0.0,91,0.00,,,0.00,weatherlink.com 1.10,2013-01-31 05:08:00,
2013-01-31 06:23:00,46.7,44.0,30.19,ENE,65,0.0,1.0,91,0.00,,,0.00,weatherlink.com 1.10,2013-01-31 05:23:00,
2013-01-31 06:38:00,46.6,44.0,30.19,NE,56,0.0,1.0,91,0.00,,,0.00,weatherlink.com 1.10,2013-01-31 05:38:00,
2013-01-31 06:53:00,46.7,44.0,30.19,NE,56,0.0,1.0,91,0.00,,,0.00,weatherlink.com 1.10,2013-01-31 05:53:00,
2013-01-31 07:08:00,46.0,44.0,30.19,NE,56,0.0,0.0,91,0.00,,,0.00,weatherlink.com 1.10,2013-01-31 06:08:00,
2013-01-31 07:23:00,45.5,43.0,30.19,East,99,0.0,0.0,91,0.00,,,0.00,weatherlink.com 1.10,2013-01-31 06:23:00,
2013-01-31 07:38:00,45.5,44.0,30.19,ENE,63,0.0,1.0,93,0.00,,,0.00,weatherlink.com 1.10,2013-01-31 06:38:00,
2013-01-31 07:54:00,45.8,44.0,30.20,NE,39,1.0,2.0,92,0.00,,,0.00,weatherlink.com 1.10,2013-01-31 06:54:00,
2013-01-31 08:09:00,46.5,44.0,30.21,ENE,65,1.0,2.0,90,0.00,,,0.00,weatherlink.com 1.10,2013-01-31 07:09:00,
2013-01-31 08:24:00,47.1,44.0,30.21,ENE,71,3.0,4.0,89,0.00,,,0.00,weatherlink.com 1.10,2013-01-31 07:24:00,
2013-01-31 08:39:00,47.5,45.0,30.21,ENE,70,0.0,2.0,89,0.00,,,0.00,weatherlink.com 1.10,2013-01-31 07:39:00,
2013-01-31 08:54:00,47.9,45.0,30.20,ENE,71,0.0,1.0,89,0.00,,,0.00,weatherlink.com 1.10,2013-01-31 07:54:00,
2013-01-31 09:09:00,48.5,46.0,30.20,ENE,78,2.0,2.0,89,0.00,,,0.00,weatherlink.com 1.10,2013-01-31 08:09:00,
2013-01-31 09:24:00,49.9,47.0,30.20,ENE,65,2.0,3.0,88,0.00,,,0.00,weatherlink.com 1.10,2013-01-31 08:24:00,
2013-01-31 09:39:00,51.0,47.0,30.21,NE,49,0.0,4.0,87,0.00,,,0.00,weatherlink.com 1.10,2013-01-31 08:39:00,
2013-01-31 09:54:00,51.7,48.0,30.21,ENE,65,0.0,3.0,86,0.00,,,0.00,weatherlink.com 1.10,2013-01-31 08:54:00,
2013-01-31 10:09:00,52.3,48.0,30.21,East,80,1.0,3.0,84,0.00,,,0.00,weatherlink.com 1.10,2013-01-31 09:09:00,
2013-01-31 10:24:00,53.2,49.0,30.21,ENE,72,2.0,3.0,84,0.00,,,0.00,weatherlink.com 1.10,2013-01-31 09:24:00,
2013-01-31 10:39:00,54.1,49.0,30.22,ENE,68,2.0,4.0,83,0.00,,,0.00,weatherlink.com 1.10,2013-01-31 09:39:00,
2013-01-31 10:54:00,55.0,50.0,30.22,NE,55,1.0,2.0,82,0.00,,,0.00,weatherlink.com 1.10,2013-01-31 09:54:00,
2013-01-31 11:09:00,56.0,50.0,30.23,ENE,64,0.0,2.0,80,0.00,,,0.00,weatherlink.com 1.10,2013-01-31 10:09:00,
2013-01-31 11:24:00,57.4,50.0,30.23,ENE,77,2.0,5.0,76,0.00,,,0.00,weatherlink.com 1.10,2013-01-31 10:24:00,
2013-01-31 11:39:00,58.8,50.0,30.22,ENE,69,2.0,6.0,72,0.00,,,0.00,weatherlink.com 1.10,2013-01-31 10:39:00,
2013-01-31 11:54:00,59.5,50.0,30.22,ENE,75,2.0,6.0,70,0.00,,,0.00,weatherlink.com 1.10,2013-01-31 10:54:00,
2013-01-31 12:09:00,60.1,50.0,30.22,ENE,68,3.0,7.0,70,0.00,,,0.00,weatherlink.com 1.10,2013-01-31 11:09:00,
2013-01-31 12:24:00,60.2,50.0,30.23,ENE,68,2.0,7.0,70,0.00,,,0.00,weatherlink.com 1.10,2013-01-31 11:24:00,
2013-01-31 12:39:00,60.6,50.0,30.22,ENE,75,4.0,5.0,69,0.00,,,0.00,weatherlink.com 1.10,2013-01-31 11:39:00,
2013-01-31 12:54:00,60.8,50.0,30.22,ENE,67,1.0,6.0,67,0.00,,,0.00,weatherlink.com 1.10,2013-01-31 11:54:00,
2013-01-31 13:09:00,61.1,50.0,30.23,NE,48,1.0,3.0,68,0.00,,,0.00,weatherlink.com 1.10,2013-01-31 12:09:00,
2013-01-31 13:24:00,61.6,50.0,30.22,NE,55,0.0,4.0,66,0.00,,,0.00,weatherlink.com 1.10,2013-01-31 12:24:00,
2013-01-31 13:39:00,62.7,53.0,30.21,South,176,0.0,1.0,70,0.00,,,0.00,weatherlink.com 1.10,2013-01-31 12:39:00,
2013-01-31 13:54:00,63.1,54.0,30.21,SSE,167,0.0,0.0,71,0.00,,,0.00,weatherlink.com 1.10,2013-01-31 12:54:00,
2013-01-31 14:09:00,62.1,53.0,30.20,East,85,0.0,1.0,71,0.00,,,0.00,weatherlink.com 1.10,2013-01-31 13:09:00,
2013-01-31 14:24:00,61.8,53.0,30.20,SSE,147,0.0,1.0,72,0.00,,,0.00,weatherlink.com 1.10,2013-01-31 13:24:00,
2013-01-31 14:39:00,61.8,53.0,30.20,SE,146,0.0,0.0,72,0.00,,,0.00,weatherlink.com 1.10,2013-01-31 13:39:00,
2013-01-31 14:54:00,61.9,53.0,30.20,SSE,160,0.0,0.0,72,0.00,,,0.00,weatherlink.com 1.10,2013-01-31 13:54:00,
2013-01-31 15:09:00,62.6,53.0,30.19,South,181,0.0,0.0,72,0.00,,,0.00,weatherlink.com 1.10,2013-01-31 14:09:00,
2013-01-31 15:24:00,62.3,53.0,30.18,South,176,0.0,0.0,71,0.00,,,0.00,weatherlink.com 1.10,2013-01-31 14:24:00,
2013-01-31 15:39:00,62.2,53.0,30.19,South,179,0.0,0.0,72,0.00,,,0.00,weatherlink.com 1.10,2013-01-31 14:39:00,
2013-01-31 15:54:00,61.9,53.0,30.20,ENE,70,0.0,1.0,72,0.00,,,0.00,weatherlink.com 1.10,2013-01-31 14:54:00,
2013-01-31 16:09:00,61.7,53.0,30.20,NE,46,0.0,1.0,74,0.00,,,0.00,weatherlink.com 1.10,2013-01-31 15:09:00,
2013-01-31 16:24:00,60.7,53.0,30.20,SSE,157,0.0,1.0,75,0.00,,,0.00,weatherlink.com 1.10,2013-01-31 15:24:00,
2013-01-31 16:39:00,60.2,53.0,30.20,South,174,0.0,0.0,77,0.00,,,0.00,weatherlink.com 1.10,2013-01-31 15:39:00,
2013-01-31 16:55:00,59.5,53.0,30.21,East,93,0.0,1.0,78,0.00,,,0.00,weatherlink.com 1.10,2013-01-31 15:55:00,
2013-01-31 17:10:00,58.6,52.0,30.21,SSE,155,0.0,0.0,80,0.00,,,0.00,weatherlink.com 1.10,2013-01-31 16:10:00,
2013-01-31 17:25:00,57.8,52.0,30.21,South,173,0.0,0.0,82,0.00,,,0.00,weatherlink.com 1.10,2013-01-31 16:25:00,
2013-01-31 17:40:00,56.9,52.0,30.21,SSE,157,0.0,0.0,83,0.00,,,0.00,weatherlink.com 1.10,2013-01-31 16:40:00,
2013-01-31 17:55:00,56.2,52.0,30.21,SSE,157,0.0,0.0,84,0.00,,,0.00,weatherlink.com 1.10,2013-01-31 16:55:00,
2013-01-31 18:10:00,55.6,51.0,30.21,South,179,0.0,0.0,85,0.00,,,0.00,weatherlink.com 1.10,2013-01-31 17:10:00,
2013-01-31 18:25:00,55.0,51.0,30.22,South,179,0.0,0.0,87,0.00,,,0.00,weatherlink.com 1.10,2013-01-31 17:25:00,
2013-01-31 18:40:00,54.4,51.0,30.21,South,179,0.0,0.0,88,0.00,,,0.00,weatherlink.com 1.10,2013-01-31 17:40:00,
2013-01-31 18:55:00,53.7,50.0,30.21,South,179,0.0,0.0,88,0.00,,,0.00,weatherlink.com 1.10,2013-01-31 17:55:00,
2013-01-31 19:10:00,53.3,50.0,30.22,South,179,0.0,0.0,89,0.00,,,0.00,weatherlink.com 1.10,2013-01-31 18:10:00,
2013-01-31 19:25:00,52.7,50.0,30.21,South,179,0.0,0.0,89,0.00,,,0.00,weatherlink.com 1.10,2013-01-31 18:25:00,
2013-01-31 19:40:00,52.2,49.0,30.21,South,179,0.0,0.0,90,0.00,,,0.00,weatherlink.com 1.10,2013-01-31 18:40:00,
2013-01-31 19:55:00,51.7,49.0,30.21,South,179,0.0,0.0,91,0.00,,,0.00,weatherlink.com 1.10,2013-01-31 18:55:00,
2013-01-31 20:10:00,51.6,49.0,30.21,South,181,0.0,0.0,92,0.00,,,0.00,weatherlink.com 1.10,2013-01-31 19:10:00,
2013-01-31 20:25:00,51.3,49.0,30.21,South,181,0.0,0.0,93,0.00,,,0.00,weatherlink.com 1.10,2013-01-31 19:25:00,
2013-01-31 20:40:00,51.7,50.0,30.20,South,176,0.0,0.0,93,0.00,,,0.00,weatherlink.com 1.10,2013-01-31 19:40:00,
2013-01-31 20:55:00,51.7,50.0,30.21,South,177,0.0,0.0,94,0.00,,,0.00,weatherlink.com 1.10,2013-01-31 19:55:00,
2013-01-31 21:10:00,51.4,50.0,30.19,South,174,0.0,0.0,94,0.00,,,0.00,weatherlink.com 1.10,2013-01-31 20:10:00,
2013-01-31 21:40:00,51.4,50.0,30.21,South,173,0.0,0.0,95,0.00,,,0.00,weatherlink.com 1.10,2013-01-31 20:40:00,
2013-01-31 21:55:00,51.2,50.0,30.21,South,179,0.0,0.0,94,0.00,,,0.00,weatherlink.com 1.10,2013-01-31 20:55:00,
2013-01-31 22:10:00,50.8,49.0,30.21,South,173,0.0,0.0,94,0.00,,,0.00,weatherlink.com 1.10,2013-01-31 21:10:00,
2013-01-31 22:25:00,50.4,49.0,30.21,South,180,0.0,0.0,94,0.00,,,0.00,weatherlink.com 1.10,2013-01-31 21:25:00,
2013-01-31 22:40:00,50.1,49.0,30.20,South,180,0.0,0.0,95,0.00,,,0.00,weatherlink.com 1.10,2013-01-31 21:40:00,
2013-01-31 22:55:00,49.7,48.0,30.20,South,179,0.0,0.0,95,0.00,,,0.00,weatherlink.com 1.10,2013-01-31 21:55:00,
2013-01-31 23:10:00,49.5,48.0,30.20,South,179,0.0,0.0,95,0.00,,,0.00,weatherlink.com 1.10,2013-01-31 22:10:00,
2013-01-31 23:25:00,49.4,48.0,30.20,South,179,0.0,0.0,96,0.00,,,0.00,weatherlink.com 1.10,2013-01-31 22:25:00,
2013-01-31 23:40:00,49.3,48.0,30.19,South,179,0.0,0.0,96,0.00,,,0.00,weatherlink.com 1.10,2013-01-31 22:40:00,